createdAt,value
2023-04-13T08:19:34.148Z,10.82
2023-04-13T08:22:02.442Z,11.64
2023-04-13T08:24:29.654Z,12.16
2023-04-13T08:26:58.493Z,12.41
2023-04-13T08:29:26.052Z,12.40
2023-04-13T08:31:53.306Z,12.52
2023-04-13T08:34:20.602Z,12.58
2023-04-13T08:36:48.020Z,12.67
2023-04-13T08:39:15.122Z,12.91
2023-04-13T08:41:45.568Z,12.63
2023-04-13T08:44:14.190Z,12.61
2023-04-13T08:46:45.978Z,12.79
2023-04-13T08:49:14.541Z,12.73
2023-04-13T08:52:07.027Z,12.78
2023-04-13T08:54:35.409Z,12.73
2023-04-13T08:57:05.122Z,12.70
2023-04-13T08:59:32.868Z,12.90
2023-04-13T09:02:02.152Z,12.78
2023-04-13T09:04:39.466Z,12.73
2023-04-13T09:07:08.471Z,12.88
2023-04-13T09:09:39.895Z,13.14
2023-04-13T09:12:06.770Z,13.18
2023-04-13T09:14:38.557Z,13.60
2023-04-13T09:17:07.176Z,13.86
2023-04-13T09:19:38.334Z,13.94
2023-04-13T09:22:14.516Z,14.25
2023-04-13T09:24:42.059Z,14.28
2023-04-13T09:27:23.515Z,14.48
2023-04-13T09:29:52.501Z,14.41
2023-04-13T09:32:23.161Z,14.49
2023-04-13T09:35:05.204Z,14.44
2023-04-13T09:37:35.575Z,14.55
2023-04-13T09:40:13.499Z,14.64
2023-04-13T09:42:41.876Z,14.53
2023-04-13T09:45:09.973Z,14.68
2023-04-13T09:47:41.203Z,14.64
2023-04-13T09:50:24.658Z,14.94
2023-04-13T09:53:01.138Z,15.19
2023-04-13T09:55:29.150Z,15.54
2023-04-13T09:57:56.366Z,15.74
2023-04-13T10:00:23.815Z,14.83
2023-04-13T10:02:51.732Z,15.12
2023-04-13T10:05:20.040Z,15.58
2023-04-13T10:07:47.531Z,15.73
2023-04-13T10:10:14.670Z,15.80
2023-04-13T10:12:49.062Z,15.76
